createdAt,value
2023-02-19T00:01:13.661Z,10.60
2023-02-19T00:03:41.377Z,10.56
2023-02-19T00:06:10.670Z,10.51
2023-02-19T00:08:41.392Z,10.49
2023-02-19T00:11:10.828Z,10.48
2023-02-19T00:13:38.381Z,10.46
2023-02-19T00:16:06.252Z,10.46
2023-02-19T00:18:33.410Z,10.47
2023-02-19T00:20:59.820Z,10.48
2023-02-19T00:23:27.295Z,10.51
2023-02-19T00:25:53.775Z,10.43
2023-02-19T00:28:20.500Z,10.46
2023-02-19T00:30:47.171Z,10.47
2023-02-19T00:33:13.578Z,10.52
2023-02-19T00:35:40.843Z,10.48
2023-02-19T00:38:07.328Z,10.50
2023-02-19T00:40:33.750Z,10.43
2023-02-19T00:43:00.135Z,10.43
2023-02-19T00:45:26.682Z,10.41
2023-02-19T00:47:53.945Z,10.42
2023-02-19T00:50:21.215Z,10.44
2023-02-19T00:52:48.318Z,10.40
2023-02-19T00:55:14.880Z,10.42
2023-02-19T00:57:41.327Z,10.39
2023-02-19T01:00:09.302Z,10.34
2023-02-19T01:02:35.732Z,10.39
2023-02-19T01:05:02.226Z,10.41
2023-02-19T01:07:28.706Z,10.37
2023-02-19T01:09:55.793Z,10.37
2023-02-19T01:12:23.547Z,10.36
2023-02-19T01:14:49.947Z,10.36
2023-02-19T01:17:16.374Z,10.34
2023-02-19T01:19:42.767Z,10.34
2023-02-19T01:22:09.271Z,10.36
2023-02-19T01:24:35.649Z,10.33
2023-02-19T01:27:02.825Z,10.31
2023-02-19T01:29:29.264Z,10.25
2023-02-19T01:31:55.755Z,10.25
2023-02-19T01:34:22.342Z,10.23
2023-02-19T01:36:48.808Z,10.24
2023-02-19T01:39:15.180Z,10.25
2023-02-19T01:41:41.901Z,10.21
2023-02-19T01:44:47.891Z,10.19
2023-02-19T01:47:18.082Z,10.20
2023-02-19T01:49:48.210Z,10.17
2023-02-19T01:52:18.496Z,10.18
2023-02-19T01:54:45.878Z,10.14
2023-02-19T01:57:17.830Z,10.16
2023-02-19T01:59:46.989Z,10.17
2023-02-19T02:02:13.463Z,10.20
2023-02-19T02:04:40.035Z,10.21
2023-02-19T02:07:27.691Z,10.20
2023-02-19T02:10:12.646Z,10.18
2023-02-19T02:12:39.094Z,10.26
2023-02-19T02:15:07.517Z,10.24
2023-02-19T02:17:42.481Z,10.21
2023-02-19T02:20:31.993Z,10.20
2023-02-19T02:23:08.441Z,10.24
2023-02-19T02:25:58.706Z,10.19
2023-02-19T02:28:38.793Z,10.33
2023-02-19T02:31:13.013Z,10.34
2023-02-19T02:33:46.198Z,10.20
2023-02-19T02:36:16.778Z,10.16
2023-02-19T02:38:45.734Z,10.38
2023-02-19T02:41:14.274Z,10.21
2023-02-19T02:43:41.266Z,10.16
2023-02-19T02:46:11.199Z,10.10
2023-02-19T02:48:42.073Z,9.90
2023-02-19T02:51:20.340Z,9.56
2023-02-19T02:54:25.451Z,9.39
2023-02-19T02:56:55.461Z,9.36
2023-02-19T02:59:25.395Z,9.11
2023-02-19T03:02:11.569Z,9.05
2023-02-19T03:05:01.053Z,8.87
2023-02-19T03:07:33.648Z,8.79
2023-02-19T03:10:04.339Z,8.57
2023-02-19T03:12:50.926Z,8.59
2023-02-19T03:15:37.291Z,8.52
2023-02-19T03:18:27.179Z,8.42
2023-02-19T03:20:57.440Z,8.38
2023-02-19T03:23:43.264Z,8.24
2023-02-19T03:26:11.653Z,8.13
2023-02-19T03:29:05.021Z,8.18
2023-02-19T03:31:32.825Z,8.15
2023-02-19T03:34:04.744Z,8.34
2023-02-19T03:36:36.756Z,8.06
2023-02-19T03:39:06.217Z,8.06
2023-02-19T03:41:40.715Z,7.94
2023-02-19T03:44:13.161Z,7.80
2023-02-19T03:46:48.512Z,7.78
2023-02-19T03:49:26.032Z,7.78
2023-02-19T03:52:02.136Z,7.83
2023-02-19T03:54:37.763Z,7.75
2023-02-19T03:57:11.604Z,7.62
2023-02-19T03:59:46.895Z,7.68
2023-02-19T04:02:16.610Z,7.57
2023-02-19T04:04:49.238Z,7.60
2023-02-19T04:07:16.162Z,7.65
2023-02-19T04:09:46.357Z,7.69
2023-02-19T04:12:20.736Z,7.59
2023-02-19T04:14:53.297Z,7.59
2023-02-19T04:17:24.568Z,7.60
2023-02-19T04:19:54.230Z,7.51
2023-02-19T04:22:22.250Z,7.47
2023-02-19T04:24:51.726Z,7.57
2023-02-19T04:27:18.462Z,7.50
2023-02-19T04:29:45.829Z,7.52
2023-02-19T04:32:13.811Z,7.44
2023-02-19T04:34:40.639Z,7.49
2023-02-19T04:37:07.748Z,7.47
2023-02-19T04:39:34.640Z,7.43
2023-02-19T04:42:01.390Z,7.44
2023-02-19T04:44:27.815Z,7.39
2023-02-19T04:46:55.426Z,7.51
2023-02-19T04:49:21.932Z,7.49
2023-02-19T04:51:48.429Z,7.51
2023-02-19T04:54:15.594Z,7.45
2023-02-19T04:56:42.086Z,7.43
2023-02-19T04:59:08.527Z,7.52
2023-02-19T05:01:35.098Z,7.52
2023-02-19T05:04:01.634Z,7.67
2023-02-19T05:06:28.042Z,7.68
2023-02-19T05:08:54.552Z,7.77
2023-02-19T05:11:23.346Z,7.75
2023-02-19T05:13:49.816Z,7.70
2023-02-19T05:16:16.857Z,7.70
2023-02-19T05:18:45.930Z,7.70
2023-02-19T05:21:13.086Z,7.73
2023-02-19T05:23:39.807Z,7.77
2023-02-19T05:26:06.906Z,7.72
2023-02-19T05:28:34.317Z,7.76
2023-02-19T05:31:05.192Z,7.75
2023-02-19T05:33:31.926Z,7.88
2023-02-19T05:35:58.521Z,7.87
2023-02-19T05:38:25.483Z,7.88
2023-02-19T05:40:52.084Z,7.85
2023-02-19T05:43:18.611Z,7.92
2023-02-19T05:45:45.790Z,7.88
2023-02-19T05:48:12.241Z,7.92
2023-02-19T05:50:39.968Z,7.94
2023-02-19T05:53:12.543Z,7.95
2023-02-19T05:55:39.104Z,8.06
2023-02-19T05:58:05.572Z,8.01
2023-02-19T06:00:33.076Z,8.01
2023-02-19T06:03:01.006Z,8.05
2023-02-19T06:05:27.601Z,8.13
2023-02-19T06:07:54.112Z,8.08
2023-02-19T06:10:20.544Z,8.06
2023-02-19T06:12:47.038Z,8.11
2023-02-19T06:15:13.708Z,8.06
2023-02-19T06:17:43.153Z,8.10
2023-02-19T06:20:10.708Z,8.07
2023-02-19T06:22:37.460Z,8.09
2023-02-19T06:25:05.121Z,8.09
2023-02-19T06:27:31.683Z,8.14
2023-02-19T06:29:58.224Z,8.10
2023-02-19T06:32:24.957Z,8.15
2023-02-19T06:34:51.549Z,8.21
2023-02-19T06:37:19.107Z,8.21
2023-02-19T06:39:45.484Z,8.20
2023-02-19T06:42:12.219Z,8.25
2023-02-19T06:44:38.787Z,8.25
2023-02-19T06:47:05.365Z,8.24
2023-02-19T06:49:31.842Z,8.25
2023-02-19T06:51:59.865Z,8.32
2023-02-19T06:54:27.164Z,8.39
2023-02-19T06:56:53.948Z,8.45
2023-02-19T06:59:20.443Z,8.44
2023-02-19T07:01:47.373Z,8.52
2023-02-19T07:04:14.114Z,8.52
2023-02-19T07:06:40.700Z,8.58
2023-02-19T07:09:08.706Z,8.70
2023-02-19T07:11:38.830Z,8.80
2023-02-19T07:14:07.859Z,9.15
2023-02-19T07:16:34.566Z,9.06
2023-02-19T07:19:01.832Z,9.06
2023-02-19T07:21:29.055Z,9.04
2023-02-19T07:23:56.740Z,8.89
2023-02-19T07:26:24.140Z,8.70
2023-02-19T07:28:51.678Z,8.58
2023-02-19T07:31:20.663Z,8.55
2023-02-19T07:33:47.598Z,8.56
2023-02-19T07:36:16.502Z,8.47
2023-02-19T07:38:43.506Z,8.45
2023-02-19T07:41:10.884Z,8.67
2023-02-19T07:43:38.898Z,8.61
2023-02-19T07:46:07.994Z,8.71
2023-02-19T07:48:34.802Z,8.56
2023-02-19T07:51:02.988Z,8.65
2023-02-19T07:53:30.457Z,8.50
2023-02-19T07:56:00.317Z,8.53
2023-02-19T07:58:26.805Z,8.54
2023-02-19T08:00:53.353Z,8.55
2023-02-19T08:03:20.176Z,8.54
2023-02-19T08:05:49.111Z,8.41
2023-02-19T08:08:16.212Z,8.51
2023-02-19T08:11:01.389Z,8.50
2023-02-19T08:13:30.180Z,8.58
2023-02-19T08:16:17.317Z,8.43
2023-02-19T08:18:48.207Z,8.43
2023-02-19T08:21:17.393Z,8.36
2023-02-19T08:23:45.552Z,8.25
2023-02-19T08:26:12.204Z,8.14
2023-02-19T08:28:38.922Z,8.06
2023-02-19T08:31:07.728Z,8.05
2023-02-19T08:33:34.855Z,8.00
2023-02-19T08:36:04.175Z,7.97
2023-02-19T08:38:31.214Z,7.94
2023-02-19T08:40:57.794Z,7.90
2023-02-19T08:43:24.291Z,8.19
2023-02-19T08:45:54.041Z,8.22
2023-02-19T08:48:20.730Z,8.44
2023-02-19T08:50:53.727Z,8.19
2023-02-19T08:53:20.879Z,8.27
2023-02-19T08:55:47.367Z,8.23
2023-02-19T08:58:13.804Z,8.25
2023-02-19T09:00:40.505Z,8.32
2023-02-19T09:03:07.006Z,8.55
2023-02-19T09:05:33.566Z,8.55
2023-02-19T09:08:00.080Z,8.45
2023-02-19T09:10:27.203Z,8.36
2023-02-19T09:12:53.803Z,8.37
2023-02-19T09:15:20.461Z,8.42
2023-02-19T09:17:51.096Z,8.53
2023-02-19T09:20:18.455Z,8.55
2023-02-19T09:22:45.277Z,8.61
2023-02-19T09:25:11.991Z,8.60
2023-02-19T09:27:41.238Z,8.69
2023-02-19T09:30:08.832Z,8.81
2023-02-19T09:32:35.394Z,8.76
2023-02-19T09:35:01.996Z,9.02
2023-02-19T09:37:28.878Z,9.08
2023-02-19T09:39:55.647Z,9.21
2023-02-19T09:42:24.281Z,9.06
2023-02-19T09:44:54.750Z,9.00
2023-02-19T09:47:23.923Z,8.92
2023-02-19T09:49:53.744Z,8.89
2023-02-19T09:52:33.708Z,8.92
2023-02-19T09:55:02.826Z,8.99
2023-02-19T09:57:31.954Z,8.82
2023-02-19T10:00:04.658Z,8.97
2023-02-19T10:02:31.370Z,8.99
2023-02-19T10:04:58.499Z,8.96
2023-02-19T10:07:27.840Z,8.85
2023-02-19T10:09:58.683Z,8.87
2023-02-19T10:12:27.454Z,8.76
2023-02-19T10:14:59.387Z,8.83
2023-02-19T10:17:30.682Z,8.87
2023-02-19T10:19:57.942Z,8.89
2023-02-19T10:22:25.135Z,8.87
2023-02-19T10:24:55.474Z,8.75
2023-02-19T10:27:22.423Z,8.77
2023-02-19T10:29:50.219Z,8.82
2023-02-19T10:32:22.165Z,9.06
2023-02-19T10:35:08.088Z,9.24
2023-02-19T10:37:36.156Z,9.15
2023-02-19T10:40:02.924Z,9.30
2023-02-19T10:42:29.684Z,9.37
2023-02-19T10:45:01.035Z,9.35
2023-02-19T10:47:31.982Z,9.66
2023-02-19T10:50:02.050Z,9.79
2023-02-19T10:52:33.596Z,9.89
2023-02-19T10:55:15.837Z,10.04
2023-02-19T10:57:42.513Z,9.97
2023-02-19T11:03:18.607Z,10.33
2023-02-19T11:05:58.855Z,10.18
2023-02-19T11:08:25.434Z,10.18
2023-02-19T11:10:51.960Z,10.12
2023-02-19T11:13:25.361Z,10.15
2023-02-19T11:15:53.694Z,10.22
2023-02-19T11:18:22.840Z,10.29
2023-02-19T11:20:53.657Z,10.36
2023-02-19T11:23:26.498Z,10.32
2023-02-19T11:25:55.636Z,10.39
2023-02-19T11:28:29.498Z,10.33
2023-02-19T11:31:14.465Z,10.13
2023-02-19T11:33:50.298Z,10.22
2023-02-19T11:36:28.700Z,10.12
2023-02-19T11:38:58.377Z,10.40
2023-02-19T11:41:42.668Z,10.55
2023-02-19T11:44:24.971Z,10.52
2023-02-19T11:47:04.810Z,10.48
2023-02-19T11:49:43.390Z,10.51
2023-02-19T11:52:23.312Z,10.53
2023-02-19T11:54:57.019Z,10.28
2023-02-19T11:57:40.119Z,10.22
2023-02-19T12:03:34.320Z,10.11
2023-02-19T12:06:17.629Z,10.25
2023-02-19T12:09:22.329Z,10.24
2023-02-19T12:12:14.225Z,10.06
2023-02-19T12:15:13.060Z,10.12
2023-02-19T12:18:03.450Z,10.21
2023-02-19T12:20:34.592Z,10.24
2023-02-19T12:23:24.101Z,10.23
2023-02-19T12:25:57.803Z,10.18
2023-02-19T12:28:54.034Z,10.05
2023-02-19T12:31:47.693Z,9.93
2023-02-19T12:34:52.379Z,10.04
2023-02-19T12:37:32.464Z,10.00
2023-02-19T12:40:14.318Z,10.01
2023-02-19T12:42:53.989Z,10.08
2023-02-19T12:45:26.688Z,10.05
2023-02-19T12:48:02.500Z,10.04
2023-02-19T12:50:30.263Z,9.53
2023-02-19T12:53:02.119Z,9.17
2023-02-19T12:55:33.759Z,9.00
2023-02-19T12:58:04.346Z,9.05
2023-02-19T13:00:38.674Z,9.08
2023-02-19T13:03:10.898Z,9.23
2023-02-19T13:05:44.742Z,9.31
2023-02-19T13:08:19.237Z,9.45
2023-02-19T13:10:51.060Z,9.45
2023-02-19T13:13:23.877Z,9.52
2023-02-19T13:15:56.305Z,9.82
2023-02-19T13:18:28.483Z,9.93
2023-02-19T13:20:56.180Z,9.88
2023-02-19T13:23:44.831Z,9.69
2023-02-19T13:26:25.903Z,9.50
2023-02-19T13:29:08.409Z,9.33
2023-02-19T13:31:59.503Z,9.39
2023-02-19T13:34:43.840Z,9.20
2023-02-19T13:37:11.294Z,9.24
2023-02-19T13:39:47.922Z,9.50
2023-02-19T13:42:25.578Z,9.79
2023-02-19T13:44:57.076Z,9.76
2023-02-19T13:47:49.025Z,9.55
2023-02-19T13:50:20.690Z,9.41
2023-02-19T13:52:47.220Z,9.05
2023-02-19T13:55:50.688Z,8.58
2023-02-19T13:59:01.211Z,8.31
2023-02-19T14:02:10.582Z,8.29
2023-02-19T14:04:52.003Z,8.37
2023-02-19T14:07:34.862Z,8.33
2023-02-19T14:10:02.244Z,8.20
2023-02-19T14:12:32.949Z,8.01
2023-02-19T14:15:32.952Z,7.88
2023-02-19T14:17:59.359Z,7.93
2023-02-19T14:20:43.497Z,8.03
2023-02-19T14:23:15.861Z,8.13
2023-02-19T14:25:57.480Z,8.23
2023-02-19T14:28:37.520Z,8.29
2023-02-19T14:31:18.347Z,8.25
2023-02-19T14:33:48.497Z,8.28
2023-02-19T14:36:26.962Z,8.30
2023-02-19T14:38:55.981Z,8.29
2023-02-19T14:41:24.414Z,8.29
2023-02-19T14:43:53.750Z,8.37
2023-02-19T14:46:27.609Z,8.37
2023-02-19T14:48:55.492Z,8.43
2023-02-19T14:51:30.146Z,8.49
2023-02-19T14:53:58.394Z,8.57
2023-02-19T14:56:28.412Z,8.56
2023-02-19T14:59:24.270Z,8.54
2023-02-19T15:01:55.135Z,8.55
2023-02-19T15:04:24.087Z,8.54
2023-02-19T15:06:52.382Z,8.61
2023-02-19T15:09:20.600Z,8.58
2023-02-19T15:11:47.787Z,8.60
2023-02-19T15:14:22.973Z,8.59
2023-02-19T15:16:58.390Z,8.63
2023-02-19T15:19:25.180Z,8.59
2023-02-19T15:21:52.269Z,8.61
2023-02-19T15:24:19.263Z,8.61
2023-02-19T15:26:49.996Z,8.68
2023-02-19T15:29:19.499Z,8.77
2023-02-19T15:31:46.860Z,8.79
2023-02-19T15:34:18.052Z,8.79
2023-02-19T15:36:45.021Z,8.83
2023-02-19T15:39:20.590Z,8.85
2023-02-19T15:41:55.784Z,8.79
2023-02-19T15:44:36.446Z,8.81
2023-02-19T15:47:12.195Z,8.74
2023-02-19T15:49:45.761Z,8.75
2023-02-19T15:52:19.744Z,8.70
2023-02-19T15:54:52.384Z,8.67
2023-02-19T15:57:22.369Z,8.65
2023-02-19T15:59:54.273Z,8.61
2023-02-19T16:02:21.038Z,8.50
2023-02-19T16:04:47.501Z,8.47
2023-02-19T16:07:24.172Z,8.43
2023-02-19T16:10:05.979Z,8.38
2023-02-19T16:12:32.514Z,8.40
2023-02-19T16:14:58.931Z,8.35
2023-02-19T16:17:29.971Z,8.30
2023-02-19T16:19:58.117Z,8.28
2023-02-19T16:22:28.279Z,8.19
2023-02-19T16:24:58.591Z,8.12
2023-02-19T16:27:29.936Z,8.11
2023-02-19T16:29:56.904Z,8.09
2023-02-19T16:32:36.911Z,8.01
2023-02-19T16:35:05.515Z,7.90
2023-02-19T16:37:35.085Z,7.95
2023-02-19T16:40:50.292Z,7.90
2023-02-19T16:43:30.984Z,7.89
2023-02-19T16:45:58.501Z,7.80
2023-02-19T16:48:25.731Z,7.79
2023-02-19T16:50:52.380Z,7.77
2023-02-19T16:53:20.358Z,7.88
2023-02-19T16:55:46.954Z,7.90
2023-02-19T16:58:13.475Z,7.97
2023-02-19T17:00:39.924Z,7.97
2023-02-19T17:03:09.371Z,8.05
2023-02-19T17:05:37.740Z,8.09
2023-02-19T17:08:22.368Z,8.10
2023-02-19T17:10:48.782Z,8.10
2023-02-19T17:13:15.279Z,8.09
2023-02-19T17:15:41.811Z,8.11
2023-02-19T17:18:10.297Z,8.10
2023-02-19T17:20:38.204Z,8.07
2023-02-19T17:23:04.583Z,8.09
2023-02-19T17:25:30.978Z,8.07
2023-02-19T17:27:57.414Z,8.23
2023-02-19T17:30:26.815Z,8.35
2023-02-19T17:32:53.293Z,8.36
2023-02-19T17:35:19.756Z,8.53
2023-02-19T17:37:46.995Z,8.39
2023-02-19T17:40:31.786Z,8.29
2023-02-19T17:42:59.145Z,8.16
2023-02-19T17:45:25.652Z,8.11
2023-02-19T17:47:52.323Z,8.14
2023-02-19T17:50:20.938Z,8.14
2023-02-19T17:52:48.245Z,8.09
2023-02-19T17:55:17.615Z,8.08
2023-02-19T17:57:44.555Z,7.95
2023-02-19T18:00:13.798Z,8.04
2023-02-19T18:02:40.249Z,8.07
2023-02-19T18:05:07.104Z,8.09
2023-02-19T18:07:33.558Z,8.08
2023-02-19T18:10:00.613Z,8.04
2023-02-19T18:12:30.130Z,8.01
2023-02-19T18:14:59.098Z,7.98
2023-02-19T18:17:26.269Z,7.91
2023-02-19T18:19:53.440Z,7.94
2023-02-19T18:22:20.393Z,7.90
2023-02-19T18:24:47.684Z,7.90
2023-02-19T18:27:16.513Z,7.88
2023-02-19T18:29:42.902Z,7.84
2023-02-19T18:32:09.533Z,7.84
2023-02-19T18:34:36.387Z,7.90
2023-02-19T18:37:03.172Z,7.82
2023-02-19T18:39:29.585Z,7.85
2023-02-19T18:41:57.394Z,7.85
2023-02-19T18:44:25.096Z,7.80
2023-02-19T18:46:51.903Z,7.80
2023-02-19T18:49:18.318Z,7.78
2023-02-19T18:51:45.891Z,7.78
2023-02-19T18:54:12.489Z,7.78
2023-02-19T18:56:42.574Z,7.76
2023-02-19T18:59:09.415Z,7.73
2023-02-19T19:01:36.865Z,7.78
2023-02-19T19:04:03.614Z,7.74
2023-02-19T19:06:30.253Z,7.70
2023-02-19T19:08:57.884Z,7.64
2023-02-19T19:11:24.774Z,7.64
2023-02-19T19:13:51.245Z,7.62
2023-02-19T19:16:17.649Z,7.59
2023-02-19T19:18:47.126Z,7.57
2023-02-19T19:21:14.938Z,7.58
2023-02-19T19:23:41.546Z,7.62
2023-02-19T19:26:08.870Z,7.61
2023-02-19T19:28:35.469Z,7.61
2023-02-19T19:31:02.352Z,7.55
2023-02-19T19:33:29.228Z,7.58
2023-02-19T19:35:56.363Z,7.60
2023-02-19T19:38:23.276Z,7.59
2023-02-19T19:40:50.616Z,7.59
2023-02-19T19:43:17.074Z,7.61
2023-02-19T19:45:43.550Z,7.59
2023-02-19T19:48:10.170Z,7.59
2023-02-19T19:50:38.290Z,7.60
2023-02-19T19:53:05.325Z,7.56
2023-02-19T19:55:34.928Z,7.55
2023-02-19T19:58:01.666Z,7.50
2023-02-19T20:00:53.950Z,7.58
2023-02-19T20:03:20.743Z,7.61
2023-02-19T20:05:49.571Z,7.61
2023-02-19T20:08:17.379Z,7.52
2023-02-19T20:10:46.182Z,7.55
2023-02-19T20:13:16.133Z,7.48
2023-02-19T20:15:45.207Z,7.46
2023-02-19T20:18:11.936Z,7.48
2023-02-19T20:20:38.347Z,7.44
2023-02-19T20:23:04.755Z,7.47
2023-02-19T20:25:31.903Z,7.47
2023-02-19T20:27:58.286Z,7.37
2023-02-19T20:30:27.765Z,7.40
2023-02-19T20:32:56.346Z,7.46
2023-02-19T20:35:26.439Z,7.42
2023-02-19T20:37:53.749Z,7.37
2023-02-19T20:40:20.228Z,7.39
2023-02-19T20:42:47.359Z,7.36
2023-02-19T20:45:15.945Z,7.35
2023-02-19T20:47:45.436Z,7.35
2023-02-19T20:50:12.014Z,7.34
2023-02-19T20:52:38.426Z,7.37
2023-02-19T20:55:05.514Z,7.37
2023-02-19T20:57:31.936Z,7.38
2023-02-19T20:59:59.047Z,7.37
2023-02-19T21:02:28.418Z,7.39
2023-02-19T21:04:56.017Z,7.41
2023-02-19T21:07:22.704Z,7.36
2023-02-19T21:09:49.303Z,7.27
2023-02-19T21:12:15.837Z,7.25
2023-02-19T21:14:42.630Z,7.25
2023-02-19T21:17:09.730Z,7.25
2023-02-19T21:19:36.136Z,7.26
2023-02-19T21:22:02.647Z,7.27
2023-02-19T21:24:29.078Z,7.25
2023-02-19T21:26:55.464Z,7.22
2023-02-19T21:29:22.309Z,7.24
2023-02-19T21:31:50.424Z,7.24
2023-02-19T21:34:20.634Z,7.21
2023-02-19T21:36:47.091Z,7.28
2023-02-19T21:39:15.859Z,7.17
2023-02-19T21:41:42.313Z,7.25
2023-02-19T21:44:08.807Z,7.24
2023-02-19T21:46:35.339Z,7.22
2023-02-19T21:49:01.828Z,7.25
2023-02-19T21:51:31.152Z,7.22
2023-02-19T21:53:57.867Z,7.23
2023-02-19T21:56:27.122Z,7.23
2023-02-19T21:58:53.980Z,6.94
2023-02-19T22:01:21.395Z,7.21
2023-02-19T22:03:48.233Z,7.25
2023-02-19T22:06:15.227Z,7.22
2023-02-19T22:08:42.957Z,7.30
2023-02-19T22:11:09.764Z,7.25
2023-02-19T22:13:39.965Z,7.29
2023-02-19T22:16:07.079Z,7.24
2023-02-19T22:18:33.826Z,7.22
2023-02-19T22:21:00.480Z,7.21
2023-02-19T22:23:26.899Z,7.20
2023-02-19T22:25:53.900Z,7.17
2023-02-19T22:28:20.335Z,7.17
2023-02-19T22:30:47.117Z,7.13
2023-02-19T22:33:13.490Z,7.19
2023-02-19T22:35:40.085Z,7.19
2023-02-19T22:38:06.514Z,7.21
2023-02-19T22:40:32.906Z,7.17
2023-02-19T22:42:59.969Z,7.16
2023-02-19T22:45:26.331Z,7.17
2023-02-19T22:47:53.783Z,7.16
2023-02-19T22:50:21.850Z,7.15
2023-02-19T22:52:49.102Z,7.08
2023-02-19T22:55:16.008Z,7.06
2023-02-19T22:57:42.437Z,7.14
2023-02-19T23:00:15.852Z,7.12
2023-02-19T23:02:42.260Z,7.12
2023-02-19T23:05:08.662Z,7.10
2023-02-19T23:07:35.117Z,7.04
2023-02-19T23:10:01.553Z,7.06
2023-02-19T23:12:27.941Z,7.10
2023-02-19T23:14:54.387Z,7.08
2023-02-19T23:17:21.439Z,7.04
2023-02-19T23:19:47.883Z,7.05
2023-02-19T23:22:14.367Z,7.06
2023-02-19T23:24:40.791Z,7.01
2023-02-19T23:27:07.252Z,6.98
2023-02-19T23:29:33.696Z,6.99
2023-02-19T23:32:00.237Z,6.95
2023-02-19T23:34:27.445Z,7.01
2023-02-19T23:36:54.641Z,6.95
2023-02-19T23:39:22.142Z,6.97
2023-02-19T23:41:50.193Z,6.94
2023-02-19T23:44:17.354Z,6.93
2023-02-19T23:46:44.201Z,6.99
2023-02-19T23:49:10.692Z,6.94
2023-02-19T23:51:37.743Z,7.02
2023-02-19T23:54:04.372Z,7.02
2023-02-19T23:56:30.936Z,6.96
2023-02-19T23:58:57.938Z,6.99
